• Join FlightAware (Why Join?)
  • Login
  • US Flag 
02:45AM EDT


 

Airport Tracker/Info


-or-


 

Live Flight TrackerFlight Track Log ✈ QXE2397 ✈ 08-Sep-2013 ✈ KMSO - KSEA

Flight Track Log - Related Links

Times and Time Zones

All times are in EDT time to prevent confusion due to time zone crossing. See the QXE2397 flight status page for this flight to view local times or setup timezone preferences in your user account.

Time Position Orientation Groundspeed Altitude Reporting Facility
EDT Latitude Longitude Course Direction KTS MPH feet Rate Location/Type
09:40PM 46.9757 -114.6911 294° West  Level Estimated
09:41PM 46.9872 -114.8114 288° West  Level Estimated
09:42PM 47.0445 -114.8991 314° West  Level FlightAware Approximate
09:43PM 47.1018 -114.9871 314° West  Level FlightAware Approximate
09:44PM 47.1114 -115.1080 292° West  Level Estimated
09:45PM 47.1208 -115.2290 270° West  Level Estimated
09:46PM 47.1302 -115.3500 275° West  Level Estimated
09:47PM 47.1531 -115.4670 286° West  Level FlightAware Approximate
09:48PM 47.1759 -115.5842 286° West  Level FlightAware Approximate
09:49PM 47.1986 -115.7014 286° West  Level FlightAware Approximate
09:50PM 47.2212 -115.8188 286° West  Level FlightAware Approximate
09:51PM 47.2437 -115.9362 286° West  Level FlightAware Approximate
09:52PM 47.2660 -116.0538 286° West  Level FlightAware Approximate
09:53PM 47.2882 -116.1714 286° West  Level FlightAware Approximate
09:54PM 47.3103 -116.2892 286° West  Level FlightAware Approximate
09:55PM 47.3323 -116.4070 285° West  Level FlightAware Approximate
09:56PM 47.3542 -116.5249 285° West  Level FlightAware Approximate
09:57PM 47.3759 -116.6430 285° West  Level FlightAware Approximate
09:58PM 47.3975 -116.7611 285° West  Level FlightAware Approximate
09:59PM 47.4190 -116.8794 285° West  Level FlightAware Approximate
10:00PM 47.4404 -116.9977 285° West  Level FlightAware Approximate
10:01PM 47.4617 -117.1161 285° West  Level FlightAware Approximate
10:02PM 47.4641 -117.2386 279° West  Level Estimated
10:03PM 47.4853 -117.3571 285° West  Level FlightAware Approximate
10:04PM 47.4870 -117.4797 278° West  Level Estimated
10:05PM 47.5010 -117.5935 280° West  Level FlightAware Approximate
10:06PM 47.5149 -117.7074 280° West  Level FlightAware Approximate
10:07PM 47.5288 -117.8214 280° West  Level FlightAware Approximate
10:08PM 47.5425 -117.9354 280° West  Level FlightAware Approximate
10:09PM 47.5561 -118.0495 280° West  Level FlightAware Approximate
10:10PM 47.5695 -118.1636 280° West  Level FlightAware Approximate
10:11PM 47.5829 -118.2778 280° West  Level FlightAware Approximate
10:12PM 47.5961 -118.3921 280° West  Level FlightAware Approximate
10:13PM 47.6093 -118.5064 280° West  Level FlightAware Approximate
10:14PM 47.6223 -118.6207 280° West  Level FlightAware Approximate
10:15PM 47.6352 -118.7352 280° West  Level FlightAware Approximate
10:16PM 47.6480 -118.8496 279° West  Level FlightAware Approximate
10:17PM 47.6607 -118.9642 279° West  Level FlightAware Approximate
10:18PM 47.6550 -119.0799 277° West  Level Estimated
10:19PM 47.6677 -119.1945 279° West  Level FlightAware Approximate
10:20PM 47.6802 -119.3091 279° West  Level FlightAware Approximate
10:21PM 47.6926 -119.4238 279° West  Level FlightAware Approximate
10:22PM 47.7049 -119.5385 279° West  Level FlightAware Approximate
10:23PM 47.6957 -119.6539 296° West  Level Estimated
10:24PM 47.6863 -119.7692 270° West  Level Estimated
10:25PM 47.6768 -119.8845 278° West  Level Estimated
10:26PM 47.6989 -119.9959 286° West  Level FlightAware Approximate
10:27PM 47.6876 -120.1109 276° West  Level Estimated
10:28PM 47.7099 -120.2223 287° West  Level FlightAware Approximate
10:29PM 47.6967 -120.3368 277° West  Level Estimated
10:30PM 47.7204 -120.4475 288° West  Level FlightAware Approximate
10:31PM 47.7048 -120.5614 281° West  Level Estimated
10:32PM 47.6891 -120.6752 276° West  Level Estimated
10:33PM 47.7156 -120.7845 290° West  Level FlightAware Approximate
10:34PM 47.6968 -120.8972 276° West  Level Estimated
10:35PM 47.7237 -121.0063 290° West  Level FlightAware Approximate
10:36PM 47.7504 -121.1156 290° West  Level FlightAware Approximate
10:37PM 47.7236 -121.2248 214° Southwest  Level Estimated
10:38PM 47.6967 -121.3339 228° Southwest  Level Estimated
10:39PM 47.6698 -121.4429 222° Southwest  Level Estimated
10:40PM 47.6629 -121.5586 265° West  Level FlightAware Approximate
10:41PM 47.6329 -121.6658 214° Southwest  Level Estimated
10:42PM 47.6029 -121.7729 233° Southwest  Level Estimated
10:43PM 47.5728 -121.8799 228° Southwest  Level Estimated
10:44PM 47.5426 -121.9867 222° Southwest  Level Estimated
10:45PM 47.5123 -122.0935 222° Southwest  Level Estimated
10:46PM 47.4819 -122.2001 222° Southwest  Level Estimated
10:47PM 47.4333 -122.3000 222° Southwest  Level FlightAware Approximate
10:48PM 47.4499 -122.3118 222° Southwest  Level Estimated
10:49PM 47.4499 -122.3118 222° Southwest  Level Estimated
10:50PM 47.4499 -122.3118 222° Southwest  Level Estimated
10:51PM 47.4499 -122.3118 222° Southwest  Level Estimated
10:52PM 47.4499 -122.3118 222° Southwest  Level Estimated
10:53PM 47.4499 -122.3118 270° West  Level Estimated
10:54PM 47.4499 -122.3118 270° West  Level Estimated
10:55PM 47.4499 -122.3118 270° West  Level Estimated
10:56PM 47.4499 -122.3118 270° West  Level Estimated
10:57PM 47.4499 -122.3118 270° West  Level Estimated
10:58PM 47.4499 -122.3118 270° West  Level Estimated